Time;durP1;ratioP1;P1;durP2;ratioP2;P2;SDS_P1;SDS_P2;PMS_P1;PMS_P2;Temp;Humidity;BMP_temperature;BMP_pressure;BME280_temperature;BME280_humidity;BME280_pressure;Samples;Min_cycle;Max_cycle;Signal;HPM_P1;HPM_P2
2024/01/27 00:01:05;;;;;;;1999.90;999.90;;;;;;;;;;5062874;28;20049;-80
2024/01/27 00:03:31;;;;;;;1999.90;999.90;;;;;;;;;;5082226;28;20409;-79
2024/01/27 00:05:57;;;;;;;1999.90;999.90;;;;;;;;;;5064967;28;20055;-79
2024/01/27 00:08:26;;;;;;;1999.90;999.90;;;;;;;;;;5079773;28;20509;-80
2024/01/27 00:10:52;;;;;;;1999.90;999.90;;;;;;;;;;5062845;28;20439;-81
2024/01/27 00:13:19;;;;;;;1999.90;999.90;;;;;;;;;;5076117;28;20055;-80
2024/01/27 00:15:45;;;;;;;1999.90;999.90;;;;;;;;;;5076278;28;20480;-80
2024/01/27 00:18:16;;;;;;;1999.90;999.90;;;;;;;;;;5078633;28;20044;-79
2024/01/27 00:20:43;;;;;;;1999.90;999.90;;;;;;;;;;5072192;28;20105;-81
2024/01/27 00:23:09;;;;;;;1999.90;999.90;;;;;;;;;;5077360;28;20110;-80
2024/01/27 00:25:37;;;;;;;1999.90;999.90;;;;;;;;;;5076017;28;20392;-83
2024/01/27 00:28:04;;;;;;;1999.90;999.90;;;;;;;;;;5072332;28;20563;-81
2024/01/27 00:30:31;;;;;;;1999.90;999.90;;;;;;;;;;5072858;28;20058;-80
2024/01/27 00:32:57;;;;;;;1999.90;999.90;;;;;;;;;;5070576;28;20051;-79
2024/01/27 00:35:24;;;;;;;1999.90;999.90;;;;;;;;;;5080135;28;20044;-82
2024/01/27 00:37:50;;;;;;;1999.90;999.90;;;;;;;;;;5072634;28;20045;-80
2024/01/27 00:40:17;;;;;;;1999.90;999.90;;;;;;;;;;5076648;28;20047;-80
2024/01/27 00:42:45;;;;;;;1999.90;999.90;;;;;;;;;;5079187;28;20040;-80
2024/01/27 00:45:11;;;;;;;1999.90;999.90;;;;;;;;;;5084851;28;20045;-79
2024/01/27 00:47:38;;;;;;;1999.90;999.90;;;;;;;;;;5076964;28;20056;-80
2024/01/27 00:50:05;;;;;;;1999.90;999.90;;;;;;;;;;5073039;28;20054;-80
2024/01/27 00:52:32;;;;;;;1999.90;999.90;;;;;;;;;;5076168;28;20060;-83
2024/01/27 00:54:58;;;;;;;1999.90;999.90;;;;;;;;;;5087895;28;20044;-79
2024/01/27 00:57:25;;;;;;;1999.90;999.90;;;;;;;;;;5085561;28;20051;-79
2024/01/27 00:59:53;;;;;;;1999.90;999.90;;;;;;;;;;5079145;28;20044;-80
2024/01/27 01:02:19;;;;;;;1999.90;999.90;;;;;;;;;;5081442;28;20067;-79
2024/01/27 01:04:46;;;;;;;1999.90;999.90;;;;;;;;;;5062483;28;20049;-80
2024/01/27 01:07:12;;;;;;;1999.90;999.90;;;;;;;;;;5075893;28;20041;-81
2024/01/27 01:09:40;;;;;;;1999.90;999.90;;;;;;;;;;5080758;28;20216;-80
2024/01/27 01:12:07;;;;;;;1999.90;999.90;;;;;;;;;;5074591;28;20041;-79
2024/01/27 01:14:33;;;;;;;1999.90;999.90;;;;;;;;;;5081748;28;20139;-82
2024/01/27 01:17:01;;;;;;;1999.90;999.90;;;;;;;;;;5074405;28;20052;-80
2024/01/27 01:19:28;;;;;;;1999.90;999.90;;;;;;;;;;5080935;28;20040;-79
2024/01/27 01:21:54;;;;;;;1999.90;999.90;;;;;;;;;;5077383;28;20044;-80
2024/01/27 01:24:21;;;;;;;1999.90;999.90;;;;;;;;;;5074306;28;20404;-79
2024/01/27 01:26:48;;;;;;;1999.90;999.90;;;;;;;;;;5076975;28;20561;-80
2024/01/27 01:29:14;;;;;;;1999.90;999.90;;;;;;;;;;5080374;28;20048;-84
2024/01/27 01:31:42;;;;;;;1999.90;999.90;;;;;;;;;;5077204;28;20051;-80
2024/01/27 01:34:10;;;;;;;1999.90;999.90;;;;;;;;;;5075262;28;20052;-81
2024/01/27 01:36:37;;;;;;;1999.90;999.90;;;;;;;;;;5075717;28;20055;-80
2024/01/27 01:39:04;;;;;;;1999.90;999.90;;;;;;;;;;5070702;28;20045;-80
2024/01/27 01:41:30;;;;;;;1999.90;999.90;;;;;;;;;;5075315;28;20075;-80
2024/01/27 01:43:57;;;;;;;1999.90;999.90;;;;;;;;;;5065899;28;20040;-81
2024/01/27 01:46:24;;;;;;;1999.90;999.90;;;;;;;;;;5080524;28;20147;-80
2024/01/27 01:48:51;;;;;;;1999.90;999.90;;;;;;;;;;5085164;28;20101;-81
2024/01/27 01:51:19;;;;;;;1999.90;999.90;;;;;;;;;;5082301;28;20051;-80
2024/01/27 01:53:46;;;;;;;1999.90;999.90;;;;;;;;;;5071872;28;20409;-80
2024/01/27 01:56:14;;;;;;;1999.90;999.90;;;;;;;;;;5063860;28;20045;-80
2024/01/27 01:58:41;;;;;;;1999.90;999.90;;;;;;;;;;5068929;28;20040;-80
2024/01/27 02:01:07;;;;;;;1999.90;999.90;;;;;;;;;;5063211;28;20052;-83
2024/01/27 02:03:34;;;;;;;1999.90;999.90;;;;;;;;;;5081964;28;20047;-81
2024/01/27 02:06:00;;;;;;;1999.90;999.90;;;;;;;;;;5072296;28;20064;-80
2024/01/27 02:08:28;;;;;;;1999.90;999.90;;;;;;;;;;5075982;28;20048;-81
2024/01/27 02:10:55;;;;;;;1999.90;999.90;;;;;;;;;;5069596;28;20053;-80
2024/01/27 02:13:23;;;;;;;1999.90;999.90;;;;;;;;;;5073416;28;20519;-80
2024/01/27 02:15:50;;;;;;;1999.90;999.90;;;;;;;;;;5069250;28;20085;-80
2024/01/27 02:18:18;;;;;;;1999.90;999.90;;;;;;;;;;5084332;28;20044;-80
2024/01/27 02:20:44;;;;;;;1999.90;999.90;;;;;;;;;;5081456;28;20055;-80
2024/01/27 02:23:11;;;;;;;1999.90;999.90;;;;;;;;;;5082399;28;20044;-81
2024/01/27 02:25:38;;;;;;;1999.90;999.90;;;;;;;;;;5091788;28;20047;-82
2024/01/27 02:28:06;;;;;;;1999.90;999.90;;;;;;;;;;5078910;28;20051;-80
2024/01/27 02:30:32;;;;;;;1999.90;999.90;;;;;;;;;;5088780;28;20488;-80
2024/01/27 02:32:59;;;;;;;1999.90;999.90;;;;;;;;;;5089255;28;20048;-80
2024/01/27 02:35:25;;;;;;;1999.90;999.90;;;;;;;;;;5077493;28;20055;-80
2024/01/27 02:37:52;;;;;;;1999.90;999.90;;;;;;;;;;5073329;28;20045;-82
2024/01/27 02:40:19;;;;;;;1999.90;999.90;;;;;;;;;;5083350;28;20055;-81
2024/01/27 02:42:46;;;;;;;1999.90;999.90;;;;;;;;;;5080097;28;20044;-81
2024/01/27 02:45:13;;;;;;;1999.90;999.90;;;;;;;;;;5085037;28;20055;-80
2024/01/27 02:47:40;;;;;;;1999.90;999.90;;;;;;;;;;5085298;28;20488;-81
2024/01/27 02:50:07;;;;;;;1999.90;999.90;;;;;;;;;;5079412;28;20499;-83
2024/01/27 02:52:34;;;;;;;1999.90;999.90;;;;;;;;;;5074554;28;20480;-82
2024/01/27 02:55:00;;;;;;;1999.90;999.90;;;;;;;;;;5083259;28;20051;-80
2024/01/27 02:57:27;;;;;;;1999.90;999.90;;;;;;;;;;5072749;28;20501;-84
2024/01/27 02:59:55;;;;;;;1999.90;999.90;;;;;;;;;;5067507;28;20040;-81
2024/01/27 03:02:21;;;;;;;1999.90;999.90;;;;;;;;;;5067761;28;20131;-81
2024/01/27 03:04:48;;;;;;;1999.90;999.90;;;;;;;;;;5072064;28;20420;-82
2024/01/27 03:07:14;;;;;;;1999.90;999.90;;;;;;;;;;5084509;28;20046;-81
2024/01/27 03:09:41;;;;;;;1999.90;999.90;;;;;;;;;;5074058;28;20508;-81
2024/01/27 03:12:08;;;;;;;1999.90;999.90;;;;;;;;;;5070850;28;20049;-83
2024/01/27 03:14:35;;;;;;;1999.90;999.90;;;;;;;;;;5085308;28;20131;-81
2024/01/27 03:17:02;;;;;;;1999.90;999.90;;;;;;;;;;5072855;28;20051;-81
2024/01/27 03:19:47;;;;;;;1999.90;999.90;;;;;;;;;;5070245;28;20040;-81
2024/01/27 03:22:14;;;;;;;1999.90;999.90;;;;;;;;;;5074605;28;20053;-84
2024/01/27 03:24:41;;;;;;;1999.90;999.90;;;;;;;;;;5075555;28;20060;-81
2024/01/27 03:27:07;;;;;;;1999.90;999.90;;;;;;;;;;5078977;28;20076;-82
2024/01/27 03:29:34;;;;;;;1999.90;999.90;;;;;;;;;;5070369;28;20071;-83
2024/01/27 03:32:00;;;;;;;1999.90;999.90;;;;;;;;;;5069262;28;20074;-82
2024/01/27 03:34:28;;;;;;;1999.90;999.90;;;;;;;;;;5076478;28;20051;-84
2024/01/27 03:36:55;;;;;;;1999.90;999.90;;;;;;;;;;5077869;28;20059;-82
2024/01/27 03:39:21;;;;;;;1999.90;999.90;;;;;;;;;;5063645;28;20045;-82
2024/01/27 03:41:48;;;;;;;1999.90;999.90;;;;;;;;;;5064195;28;20067;-82
2024/01/27 03:44:14;;;;;;;1999.90;999.90;;;;;;;;;;5074860;28;20052;-82
2024/01/27 03:46:41;;;;;;;1999.90;999.90;;;;;;;;;;5082827;28;20047;-81
2024/01/27 03:49:07;;;;;;;1999.90;999.90;;;;;;;;;;5081509;28;20098;-82
2024/01/27 03:51:35;;;;;;;1999.90;999.90;;;;;;;;;;5071858;28;20052;-81
2024/01/27 03:54:02;;;;;;;1999.90;999.90;;;;;;;;;;5068964;28;20400;-83
2024/01/27 03:56:28;;;;;;;1999.90;999.90;;;;;;;;;;5071436;28;20041;-86
2024/01/27 03:58:55;;;;;;;1999.90;999.90;;;;;;;;;;5071819;28;20051;-81
2024/01/27 04:01:22;;;;;;;1999.90;999.90;;;;;;;;;;5077279;28;20404;-81
2024/01/27 04:03:48;;;;;;;1999.90;999.90;;;;;;;;;;5065869;28;20048;-80
2024/01/27 04:06:15;;;;;;;1999.90;999.90;;;;;;;;;;5069349;28;20041;-80
2024/01/27 04:08:44;;;;;;;1999.90;999.90;;;;;;;;;;5079311;28;20044;-80
2024/01/27 04:11:19;;;;;;;1999.90;999.90;;;;;;;;;;5067474;28;20068;-81
2024/01/27 04:13:46;;;;;;;1999.90;999.90;;;;;;;;;;5080906;28;20060;-81
2024/01/27 04:16:12;;;;;;;1999.90;999.90;;;;;;;;;;5077147;28;20493;-81
2024/01/27 04:18:39;;;;;;;1999.90;999.90;;;;;;;;;;5075315;28;20049;-82
2024/01/27 04:21:06;;;;;;;1999.90;999.90;;;;;;;;;;5072070;28;20477;-81
2024/01/27 04:23:33;;;;;;;1999.90;999.90;;;;;;;;;;5083698;28;20054;-82
2024/01/27 04:26:03;;;;;;;1999.90;999.90;;;;;;;;;;5078309;28;20056;-81
2024/01/27 04:28:30;;;;;;;1999.90;999.90;;;;;;;;;;5093003;28;20063;-82
2024/01/27 04:30:56;;;;;;;1999.90;999.90;;;;;;;;;;5072908;28;20041;-81
2024/01/27 04:33:23;;;;;;;1999.90;999.90;;;;;;;;;;5067694;28;20059;-81
2024/01/27 04:35:49;;;;;;;1999.90;999.90;;;;;;;;;;5074865;28;20036;-81
2024/01/27 04:38:16;;;;;;;1999.90;999.90;;;;;;;;;;5082496;28;20037;-81
2024/01/27 04:40:42;;;;;;;1999.90;999.90;;;;;;;;;;5082061;28;20047;-81
2024/01/27 04:43:10;;;;;;;1999.90;999.90;;;;;;;;;;5076420;28;20719;-81
2024/01/27 04:45:37;;;;;;;1999.90;999.90;;;;;;;;;;5086566;28;20527;-83
2024/01/27 04:48:04;;;;;;;1999.90;999.90;;;;;;;;;;5071067;28;20045;-81
2024/01/27 04:50:43;;;;;;;1999.90;999.90;;;;;;;;;;5080803;28;20754;-81
2024/01/27 04:53:09;;;;;;;1999.90;999.90;;;;;;;;;;5077736;28;20063;-80
2024/01/27 04:55:36;;;;;;;1999.90;999.90;;;;;;;;;;5078184;28;20057;-83
2024/01/27 04:58:02;;;;;;;1999.90;999.90;;;;;;;;;;5083777;28;20055;-82
2024/01/27 05:00:30;;;;;;;1999.90;999.90;;;;;;;;;;5086622;28;20045;-82
2024/01/27 05:02:59;;;;;;;1999.90;999.90;;;;;;;;;;5077919;28;20357;-81
2024/01/27 05:05:25;;;;;;;1999.90;999.90;;;;;;;;;;5080353;28;20063;-81
2024/01/27 05:07:51;;;;;;;1999.90;999.90;;;;;;;;;;5082888;28;20044;-82
2024/01/27 05:10:18;;;;;;;1999.90;999.90;;;;;;;;;;5078290;28;20040;-80
2024/01/27 05:12:45;;;;;;;1999.90;999.90;;;;;;;;;;5077566;28;20040;-81
2024/01/27 05:15:11;;;;;;;1999.90;999.90;;;;;;;;;;5069925;28;20059;-82
2024/01/27 05:17:39;;;;;;;1999.90;999.90;;;;;;;;;;5082799;28;20110;-81
2024/01/27 05:20:08;;;;;;;1999.90;999.90;;;;;;;;;;5074678;28;20055;-82
2024/01/27 05:22:34;;;;;;;1999.90;999.90;;;;;;;;;;5068979;28;20056;-81
2024/01/27 05:25:01;;;;;;;1999.90;999.90;;;;;;;;;;5065471;28;20052;-81
2024/01/27 05:27:28;;;;;;;1999.90;999.90;;;;;;;;;;5075224;28;20055;-81
2024/01/27 05:29:53;;;;;;;1999.90;999.90;;;;;;;;;;5070639;28;20048;-81
2024/01/27 05:32:20;;;;;;;1999.90;999.90;;;;;;;;;;5069080;28;20485;-81
2024/01/27 05:34:47;;;;;;;1999.90;999.90;;;;;;;;;;5071704;28;20052;-80
2024/01/27 05:37:14;;;;;;;1999.90;999.90;;;;;;;;;;5069853;28;20048;-80
2024/01/27 05:39:40;;;;;;;1999.90;999.90;;;;;;;;;;5067936;28;20047;-81
2024/01/27 05:42:07;;;;;;;1999.90;999.90;;;;;;;;;;5079029;28;20058;-80
2024/01/27 05:44:33;;;;;;;1999.90;999.90;;;;;;;;;;5081854;28;20397;-81
2024/01/27 05:47:00;;;;;;;1999.90;999.90;;;;;;;;;;5075048;28;20058;-81
2024/01/27 05:49:50;;;;;;;1999.90;999.90;;;;;;;;;;5085531;28;20414;-80
2024/01/27 05:52:16;;;;;;;1999.90;999.90;;;;;;;;;;5078108;28;20044;-80
2024/01/27 05:54:43;;;;;;;1999.90;999.90;;;;;;;;;;5080387;28;20056;-81
2024/01/27 05:57:09;;;;;;;1999.90;999.90;;;;;;;;;;5085147;28;20054;-81
2024/01/27 05:59:36;;;;;;;1999.90;999.90;;;;;;;;;;5077029;28;20048;-84
2024/01/27 06:02:02;;;;;;;1999.90;999.90;;;;;;;;;;5085626;28;20055;-80
2024/01/27 06:04:31;;;;;;;1999.90;999.90;;;;;;;;;;5087405;28;20105;-80
2024/01/27 06:07:00;;;;;;;1999.90;999.90;;;;;;;;;;5069353;28;20076;-81
2024/01/27 06:09:26;;;;;;;1999.90;999.90;;;;;;;;;;5070397;28;20109;-81
2024/01/27 06:11:53;;;;;;;1999.90;999.90;;;;;;;;;;5078573;28;20044;-81
2024/01/27 06:14:19;;;;;;;1999.90;999.90;;;;;;;;;;5084002;28;20089;-81
2024/01/27 06:16:46;;;;;;;1999.90;999.90;;;;;;;;;;5074974;28;20307;-80
2024/01/27 06:19:19;;;;;;;1999.90;999.90;;;;;;;;;;5065702;28;20057;-81
2024/01/27 06:21:45;;;;;;;1999.90;999.90;;;;;;;;;;5076699;28;20052;-80
2024/01/27 06:24:13;;;;;;;1999.90;999.90;;;;;;;;;;5069108;28;20094;-81
2024/01/27 06:26:39;;;;;;;1999.90;999.90;;;;;;;;;;5079912;28;20601;-80
2024/01/27 06:29:06;;;;;;;1999.90;999.90;;;;;;;;;;5075909;28;20053;-82
2024/01/27 06:31:32;;;;;;;1999.90;999.90;;;;;;;;;;5079142;28;20059;-83
2024/01/27 06:33:59;;;;;;;1999.90;999.90;;;;;;;;;;5075926;28;20050;-81
2024/01/27 06:36:27;;;;;;;1999.90;999.90;;;;;;;;;;5076338;28;20040;-80
2024/01/27 06:38:54;;;;;;;1999.90;999.90;;;;;;;;;;5079649;28;20127;-82
2024/01/27 06:41:22;;;;;;;1999.90;999.90;;;;;;;;;;5072290;28;20098;-81
2024/01/27 06:43:48;;;;;;;1999.90;999.90;;;;;;;;;;5072824;28;20055;-81
2024/01/27 06:46:15;;;;;;;1999.90;999.90;;;;;;;;;;5067549;28;20071;-81
2024/01/27 06:48:46;;;;;;;1999.90;999.90;;;;;;;;;;5075522;28;20123;-81
2024/01/27 06:51:13;;;;;;;1999.90;999.90;;;;;;;;;;5061947;28;20040;-81
2024/01/27 06:53:39;;;;;;;1999.90;999.90;;;;;;;;;;5074680;28;20040;-81
2024/01/27 06:56:07;;;;;;;1999.90;999.90;;;;;;;;;;5063416;28;20772;-82
2024/01/27 06:58:36;;;;;;;1999.90;999.90;;;;;;;;;;5069598;28;20060;-82
2024/01/27 07:01:03;;;;;;;1999.90;999.90;;;;;;;;;;5076712;28;20056;-81
2024/01/27 07:03:29;;;;;;;1999.90;999.90;;;;;;;;;;5072874;28;20054;-81
2024/01/27 07:05:56;;;;;;;1999.90;999.90;;;;;;;;;;5071779;28;20425;-80
2024/01/27 07:08:23;;;;;;;1999.90;999.90;;;;;;;;;;5053708;28;20060;-81
2024/01/27 07:10:49;;;;;;;1999.90;999.90;;;;;;;;;;5054154;28;20370;-82
2024/01/27 07:13:16;;;;;;;1999.90;999.90;;;;;;;;;;5055660;28;20041;-81
2024/01/27 07:15:44;;;;;;;1999.90;999.90;;;;;;;;;;5045997;28;20049;-82
2024/01/27 07:18:11;;;;;;;1999.90;999.90;;;;;;;;;;5053424;28;20135;-81
2024/01/27 07:20:38;;;;;;;1999.90;999.90;;;;;;;;;;5057910;28;20132;-82
2024/01/27 07:23:05;;;;;;;1999.90;999.90;;;;;;;;;;5046173;28;20099;-81
2024/01/27 07:25:31;;;;;;;1999.90;999.90;;;;;;;;;;5059898;28;20049;-83
2024/01/27 07:27:58;;;;;;;1999.90;999.90;;;;;;;;;;5058217;28;20571;-80
2024/01/27 07:30:24;;;;;;;1999.90;999.90;;;;;;;;;;5067802;28;20054;-80
2024/01/27 07:32:52;;;;;;;1999.90;999.90;;;;;;;;;;5064189;28;20047;-81
2024/01/27 07:35:19;;;;;;;1999.90;999.90;;;;;;;;;;5057950;28;20044;-82
2024/01/27 07:37:45;;;;;;;1999.90;999.90;;;;;;;;;;5054827;28;20386;-83
2024/01/27 07:40:13;;;;;;;1999.90;999.90;;;;;;;;;;5062566;28;20048;-80
2024/01/27 07:42:40;;;;;;;1999.90;999.90;;;;;;;;;;5071747;28;20041;-83
2024/01/27 07:45:08;;;;;;;1999.90;999.90;;;;;;;;;;5045078;28;20045;-80
2024/01/27 07:47:35;;;;;;;1999.90;999.90;;;;;;;;;;5060134;28;20037;-81
2024/01/27 07:50:02;;;;;;;1999.90;999.90;;;;;;;;;;5065514;28;20048;-83
2024/01/27 07:52:30;;;;;;;1999.90;999.90;;;;;;;;;;5055279;28;20067;-83
2024/01/27 07:54:56;;;;;;;1999.90;999.90;;;;;;;;;;5058676;28;20401;-82
2024/01/27 07:57:22;;;;;;;1999.90;999.90;;;;;;;;;;5062832;28;20050;-82
2024/01/27 07:59:49;;;;;;;1999.90;999.90;;;;;;;;;;5069343;28;20059;-82
2024/01/27 08:02:16;;;;;;;1999.90;999.90;;;;;;;;;;5076764;28;20503;-82
2024/01/27 08:04:42;;;;;;;1999.90;999.90;;;;;;;;;;5063126;28;20064;-83
2024/01/27 08:07:10;;;;;;;1999.90;999.90;;;;;;;;;;5056933;28;20175;-84
2024/01/27 08:09:38;;;;;;;1999.90;999.90;;;;;;;;;;5072463;28;20041;-84
2024/01/27 08:12:06;;;;;;;1999.90;999.90;;;;;;;;;;5061008;28;20377;-82
2024/01/27 08:14:33;;;;;;;1999.90;999.90;;;;;;;;;;5066124;28;20178;-83
2024/01/27 08:17:00;;;;;;;1999.90;999.90;;;;;;;;;;5074009;28;20049;-83
2024/01/27 08:19:44;;;;;;;1999.90;999.90;;;;;;;;;;5064308;28;20131;-83
2024/01/27 08:22:12;;;;;;;1999.90;999.90;;;;;;;;;;5061493;28;20135;-82
2024/01/27 08:24:39;;;;;;;1999.90;999.90;;;;;;;;;;5070276;28;20083;-83
2024/01/27 08:27:06;;;;;;;1999.90;999.90;;;;;;;;;;5053598;28;20458;-81
2024/01/27 08:29:32;;;;;;;1999.90;999.90;;;;;;;;;;5068678;28;20049;-83
2024/01/27 08:31:59;;;;;;;1999.90;999.90;;;;;;;;;;5067359;28;20071;-84
2024/01/27 08:34:26;;;;;;;1999.90;999.90;;;;;;;;;;5062687;28;20148;-82
2024/01/27 08:36:52;;;;;;;1999.90;999.90;;;;;;;;;;5072937;28;20052;-84
2024/01/27 08:39:20;;;;;;;1999.90;999.90;;;;;;;;;;5072442;28;20055;-83
2024/01/27 08:41:47;;;;;;;1999.90;999.90;;;;;;;;;;5052115;28;20045;-86
2024/01/27 08:44:13;;;;;;;1999.90;999.90;;;;;;;;;;5074114;28;20048;-82
2024/01/27 08:46:40;;;;;;;1999.90;999.90;;;;;;;;;;5076611;28;20051;-82
2024/01/27 08:49:06;;;;;;;1999.90;999.90;;;;;;;;;;5076544;28;20048;-83
2024/01/27 08:51:33;;;;;;;1999.90;999.90;;;;;;;;;;5058278;28;20053;-83
2024/01/27 08:53:59;;;;;;;1999.90;999.90;;;;;;;;;;5057727;28;20052;-84
2024/01/27 08:56:27;;;;;;;1999.90;999.90;;;;;;;;;;5059504;28;20049;-84
2024/01/27 08:58:54;;;;;;;1999.90;999.90;;;;;;;;;;5057725;28;20055;-83
2024/01/27 09:01:20;;;;;;;1999.90;999.90;;;;;;;;;;5051707;28;20045;-84
2024/01/27 09:03:47;;;;;;;1999.90;999.90;;;;;;;;;;5058991;28;20049;-83
2024/01/27 09:06:13;;;;;;;1999.90;999.90;;;;;;;;;;5082992;28;20461;-81
2024/01/27 09:08:40;;;;;;;1999.90;999.90;;;;;;;;;;5081626;28;20048;-80
2024/01/27 09:11:06;;;;;;;1999.90;999.90;;;;;;;;;;5084887;28;20048;-80
2024/01/27 09:13:34;;;;;;;1999.90;999.90;;;;;;;;;;5083030;28;20048;-80
2024/01/27 09:16:01;;;;;;;1999.90;999.90;;;;;;;;;;5071528;28;20072;-81
2024/01/27 09:18:27;;;;;;;1999.90;999.90;;;;;;;;;;5077534;28;20408;-82
2024/01/27 09:20:54;;;;;;;1999.90;999.90;;;;;;;;;;5082823;28;20041;-80
2024/01/27 09:23:21;;;;;;;1999.90;999.90;;;;;;;;;;5086174;28;20048;-80
2024/01/27 09:25:47;;;;;;;1999.90;999.90;;;;;;;;;;5072681;28;20055;-81
2024/01/27 09:28:14;;;;;;;1999.90;999.90;;;;;;;;;;5080422;28;20058;-80
2024/01/27 09:30:42;;;;;;;1999.90;999.90;;;;;;;;;;5085807;28;20132;-81
2024/01/27 09:33:08;;;;;;;1999.90;999.90;;;;;;;;;;5074350;28;20044;-81
2024/01/27 09:35:35;;;;;;;1999.90;999.90;;;;;;;;;;5075094;28;20102;-80
2024/01/27 09:38:01;;;;;;;1999.90;999.90;;;;;;;;;;5075749;28;20044;-80
2024/01/27 09:40:28;;;;;;;1999.90;999.90;;;;;;;;;;5085825;28;20048;-81
2024/01/27 09:42:56;;;;;;;1999.90;999.90;;;;;;;;;;5071621;28;20049;-81
2024/01/27 09:45:23;;;;;;;1999.90;999.90;;;;;;;;;;5078489;28;20403;-80
2024/01/27 09:47:52;;;;;;;1999.90;999.90;;;;;;;;;;5076839;28;20056;-82
2024/01/27 09:50:19;;;;;;;1999.90;999.90;;;;;;;;;;5072069;28;20444;-83
2024/01/27 09:52:57;;;;;;;1999.90;999.90;;;;;;;;;;5076668;28;20058;-81
2024/01/27 09:55:24;;;;;;;1999.90;999.90;;;;;;;;;;5074606;28;20075;-83
2024/01/27 09:57:51;;;;;;;1999.90;999.90;;;;;;;;;;5078810;28;20044;-80
2024/01/27 10:00:20;;;;;;;1999.90;999.90;;;;;;;;;;5074769;28;20048;-81
2024/01/27 10:02:47;;;;;;;1999.90;999.90;;;;;;;;;;5076995;28;20055;-80
2024/01/27 10:05:15;;;;;;;1999.90;999.90;;;;;;;;;;5072193;28;20524;-80
2024/01/27 10:07:42;;;;;;;1999.90;999.90;;;;;;;;;;5073794;28;20041;-81
2024/01/27 10:10:09;;;;;;;1999.90;999.90;;;;;;;;;;5075677;28;20114;-80
2024/01/27 10:12:41;;;;;;;1999.90;999.90;;;;;;;;;;5075898;28;20322;-84
2024/01/27 10:15:19;;;;;;;1999.90;999.90;;;;;;;;;;5072814;28;20052;-82
2024/01/27 10:17:45;;;;;;;1999.90;999.90;;;;;;;;;;5076584;28;20051;-83
2024/01/27 10:20:15;;;;;;;1999.90;999.90;;;;;;;;;;5080943;28;20117;-81
2024/01/27 10:23:20;;;;;;;1999.90;999.90;;;;;;;;;;5077017;28;20044;-81
2024/01/27 10:25:46;;;;;;;1999.90;999.90;;;;;;;;;;5080923;28;20050;-82
2024/01/27 10:28:13;;;;;;;1999.90;999.90;;;;;;;;;;5076498;28;20497;-81
2024/01/27 10:30:39;;;;;;;1999.90;999.90;;;;;;;;;;5071390;28;20080;-81
2024/01/27 10:33:08;;;;;;;1999.90;999.90;;;;;;;;;;5077099;28;20052;-81
2024/01/27 10:35:35;;;;;;;1999.90;999.90;;;;;;;;;;5079389;28;20047;-81
2024/01/27 10:38:02;;;;;;;1999.90;999.90;;;;;;;;;;5070000;28;20408;-81
2024/01/27 10:40:29;;;;;;;1999.90;999.90;;;;;;;;;;5076654;28;20048;-81
2024/01/27 10:43:02;;;;;;;1999.90;999.90;;;;;;;;;;5071777;28;20119;-81
2024/01/27 10:45:31;;;;;;;1999.90;999.90;;;;;;;;;;5075058;28;20068;-80
2024/01/27 10:48:00;;;;;;;1999.90;999.90;;;;;;;;;;5074900;28;20051;-82
2024/01/27 10:50:27;;;;;;;1999.90;999.90;;;;;;;;;;5078516;28;20052;-81
2024/01/27 10:52:56;;;;;;;1999.90;999.90;;;;;;;;;;5077962;28;20058;-81
2024/01/27 10:55:23;;;;;;;1999.90;999.90;;;;;;;;;;5073674;28;20048;-80
2024/01/27 10:57:51;;;;;;;1999.90;999.90;;;;;;;;;;5081676;28;20074;-83
2024/01/27 11:00:18;;;;;;;1999.90;999.90;;;;;;;;;;5061844;28;20049;-81
2024/01/27 11:02:45;;;;;;;1999.90;999.90;;;;;;;;;;5075613;28;20041;-81
2024/01/27 11:05:14;;;;;;;1999.90;999.90;;;;;;;;;;5055396;28;20154;-80
2024/01/27 11:07:40;;;;;;;1999.90;999.90;;;;;;;;;;5058824;28;20057;-82
2024/01/27 11:10:07;;;;;;;1999.90;999.90;;;;;;;;;;5060254;28;20051;-80
2024/01/27 11:12:34;;;;;;;1999.90;999.90;;;;;;;;;;5052785;28;20465;-81
2024/01/27 11:15:03;;;;;;;1999.90;999.90;;;;;;;;;;5058751;28;20075;-81
2024/01/27 11:17:39;;;;;;;1999.90;999.90;;;;;;;;;;5062352;28;20056;-80
2024/01/27 11:20:06;;;;;;;;;;;;;;;;;;5067189;28;20052;-80
2024/01/27 11:22:57;;;;;;;1999.90;999.90;;;;;;;;;;5058657;28;19967;-84
2024/01/27 11:25:23;;;;;;;1999.90;999.90;;;;;;;;;;5054785;28;20045;-80
2024/01/27 11:27:51;;;;;;;1999.90;999.90;;;;;;;;;;5057318;28;20059;-80
2024/01/27 11:30:29;;;;;;;1999.90;999.90;;;;;;;;;;5054762;28;20053;-80
2024/01/27 11:32:57;;;;;;;1999.90;999.90;;;;;;;;;;5058778;28;20049;-80
2024/01/27 11:35:23;;;;;;;1999.90;999.90;;;;;;;;;;5048109;28;20053;-80
2024/01/27 11:37:50;;;;;;;1999.90;999.90;;;;;;;;;;5058500;28;20049;-79
2024/01/27 11:40:17;;;;;;;1999.90;999.90;;;;;;;;;;5056779;28;20408;-81
2024/01/27 11:42:43;;;;;;;1999.90;999.90;;;;;;;;;;5058817;28;20051;-80
2024/01/27 11:45:10;;;;;;;1999.90;999.90;;;;;;;;;;5055250;28;20515;-86
2024/01/27 11:47:38;;;;;;;1999.90;999.90;;;;;;;;;;5053560;28;20052;-81
2024/01/27 11:50:04;;;;;;;1999.90;999.90;;;;;;;;;;5057671;28;20489;-81
2024/01/27 11:52:31;;;;;;;1999.90;999.90;;;;;;;;;;5047708;28;20051;-81
2024/01/27 11:54:58;;;;;;;1999.90;999.90;;;;;;;;;;5062886;28;20055;-81
2024/01/27 11:57:25;;;;;;;1999.90;999.90;;;;;;;;;;5054959;28;20052;-81
2024/01/27 11:59:52;;;;;;;1999.90;999.90;;;;;;;;;;5057062;28;20041;-81
2024/01/27 12:02:18;;;;;;;1999.90;999.90;;;;;;;;;;5044865;28;20048;-81
2024/01/27 12:04:46;;;;;;;1999.90;999.90;;;;;;;;;;5058871;28;20068;-80
2024/01/27 12:07:13;;;;;;;1999.90;999.90;;;;;;;;;;5063690;28;20044;-81
2024/01/27 12:09:39;;;;;;;1999.90;999.90;;;;;;;;;;5069589;28;20396;-81
2024/01/27 12:12:07;;;;;;;1999.90;999.90;;;;;;;;;;5085187;28;20044;-80
2024/01/27 12:14:40;;;;;;;1999.90;999.90;;;;;;;;;;5072877;28;20048;-81
2024/01/27 12:17:09;;;;;;;1999.90;999.90;;;;;;;;;;5068514;28;20044;-81
2024/01/27 12:19:36;;;;;;;1999.90;999.90;;;;;;;;;;5074063;28;20052;-84
2024/01/27 12:22:04;;;;;;;1999.90;999.90;;;;;;;;;;5083090;28;20488;-85
2024/01/27 12:24:32;;;;;;;1999.90;999.90;;;;;;;;;;5074657;28;20045;-85
2024/01/27 12:26:58;;;;;;;1999.90;999.90;;;;;;;;;;5073292;28;20048;-84
2024/01/27 12:29:25;;;;;;;1999.90;999.90;;;;;;;;;;5081773;28;20078;-86
2024/01/27 12:31:51;;;;;;;1999.90;999.90;;;;;;;;;;5079156;28;20045;-86
2024/01/27 12:34:19;;;;;;;1999.90;999.90;;;;;;;;;;5078692;28;20061;-85
2024/01/27 12:36:46;;;;;;;1999.90;999.90;;;;;;;;;;5071410;28;20044;-86
2024/01/27 12:39:14;;;;;;;1999.90;999.90;;;;;;;;;;5076480;28;20416;-83
2024/01/27 12:41:40;;;;;;;1999.90;999.90;;;;;;;;;;5078440;28;20048;-84
2024/01/27 12:44:07;;;;;;;1999.90;999.90;;;;;;;;;;5073799;28;20044;-83
2024/01/27 12:46:33;;;;;;;1999.90;999.90;;;;;;;;;;5075844;28;20051;-84
2024/01/27 12:49:00;;;;;;;1999.90;999.90;;;;;;;;;;5077306;28;20062;-84
2024/01/27 12:51:30;;;;;;;1999.90;999.90;;;;;;;;;;5079846;28;20044;-84
2024/01/27 12:53:56;;;;;;;1999.90;999.90;;;;;;;;;;5078633;28;20729;-83
2024/01/27 12:56:24;;;;;;;1999.90;999.90;;;;;;;;;;5079833;28;20040;-85
2024/01/27 12:58:51;;;;;;;1999.90;999.90;;;;;;;;;;5080886;28;20041;-86
2024/01/27 13:01:18;;;;;;;1999.90;999.90;;;;;;;;;;5084333;28;20053;-85
2024/01/27 13:03:44;;;;;;;1999.90;999.90;;;;;;;;;;5077655;28;20128;-84
2024/01/27 13:06:11;;;;;;;1999.90;999.90;;;;;;;;;;5082032;28;20512;-84
2024/01/27 13:08:37;;;;;;;1999.90;999.90;;;;;;;;;;5083015;28;20052;-84
2024/01/27 13:11:04;;;;;;;1999.90;999.90;;;;;;;;;;5078135;28;20137;-83
2024/01/27 13:13:32;;;;;;;1999.90;999.90;;;;;;;;;;5074960;28;20053;-85
2024/01/27 13:15:58;;;;;;;1999.90;999.90;;;;;;;;;;5077887;28;20056;-85
2024/01/27 13:18:25;;;;;;;1999.90;999.90;;;;;;;;;;5069951;28;20409;-84
2024/01/27 13:20:51;;;;;;;1999.90;999.90;;;;;;;;;;5077422;28;20048;-85
2024/01/27 13:23:18;;;;;;;1999.90;999.90;;;;;;;;;;5076200;28;20647;-84
2024/01/27 13:25:44;;;;;;;1999.90;999.90;;;;;;;;;;5073869;28;20048;-85
2024/01/27 13:28:12;;;;;;;1999.90;999.90;;;;;;;;;;5070338;28;20135;-86
2024/01/27 13:30:41;;;;;;;1999.90;999.90;;;;;;;;;;5081909;28;20131;-85
2024/01/27 13:33:08;;;;;;;1999.90;999.90;;;;;;;;;;5073635;28;20114;-85
2024/01/27 13:35:34;;;;;;;1999.90;999.90;;;;;;;;;;5083781;28;20056;-85
2024/01/27 13:38:01;;;;;;;1999.90;999.90;;;;;;;;;;5081623;28;20515;-87
2024/01/27 13:40:27;;;;;;;1999.90;999.90;;;;;;;;;;5081869;28;20047;-85
2024/01/27 13:42:54;;;;;;;1999.90;999.90;;;;;;;;;;5083096;28;20055;-84